sensor_id;sensor_type;location;lat;lon;timestamp;P1;durP1;ratioP1;P2;durP2;ratioP2
37047;SDS011;23227;48.780;9.210;2023-06-26T00:01:47;9.70;;;6.13;;
37047;SDS011;23227;48.780;9.210;2023-06-26T00:04:51;11.85;;;6.07;;
37047;SDS011;23227;48.780;9.210;2023-06-26T00:07:55;14.83;;;6.20;;
37047;SDS011;23227;48.780;9.210;2023-06-26T00:11:01;9.43;;;5.90;;
37047;SDS011;23227;48.780;9.210;2023-06-26T00:14:04;8.35;;;5.68;;
37047;SDS011;23227;48.780;9.210;2023-06-26T00:17:07;8.73;;;5.90;;
37047;SDS011;23227;48.780;9.210;2023-06-26T00:20:11;9.55;;;5.85;;
37047;SDS011;23227;48.780;9.210;2023-06-26T00:23:18;8.80;;;5.77;;
37047;SDS011;23227;48.780;9.210;2023-06-26T00:26:21;9.82;;;5.68;;
37047;SDS011;23227;48.780;9.210;2023-06-26T00:29:25;10.97;;;6.07;;
37047;SDS011;23227;48.780;9.210;2023-06-26T00:32:28;8.95;;;5.93;;
37047;SDS011;23227;48.780;9.210;2023-06-26T00:35:32;8.82;;;6.00;;
37047;SDS011;23227;48.780;9.210;2023-06-26T00:38:36;10.70;;;6.00;;
37047;SDS011;23227;48.780;9.210;2023-06-26T00:41:39;10.23;;;5.95;;
37047;SDS011;23227;48.780;9.210;2023-06-26T00:44:42;9.63;;;6.50;;
37047;SDS011;23227;48.780;9.210;2023-06-26T00:47:45;10.00;;;5.97;;
37047;SDS011;23227;48.780;9.210;2023-06-26T00:53:52;8.43;;;5.33;;
37047;SDS011;23227;48.780;9.210;2023-06-26T00:56:55;8.05;;;5.30;;
37047;SDS011;23227;48.780;9.210;2023-06-26T00:59:57;9.63;;;6.00;;
37047;SDS011;23227;48.780;9.210;2023-06-26T01:03:00;12.98;;;5.75;;
37047;SDS011;23227;48.780;9.210;2023-06-26T01:09:07;10.40;;;6.80;;
37047;SDS011;23227;48.780;9.210;2023-06-26T01:12:10;10.38;;;5.82;;
37047;SDS011;23227;48.780;9.210;2023-06-26T01:15:13;9.77;;;6.32;;
37047;SDS011;23227;48.780;9.210;2023-06-26T01:18:15;13.23;;;6.70;;
37047;SDS011;23227;48.780;9.210;2023-06-26T01:21:20;8.30;;;5.93;;
37047;SDS011;23227;48.780;9.210;2023-06-26T01:24:22;8.90;;;6.33;;
37047;SDS011;23227;48.780;9.210;2023-06-26T01:27:30;9.87;;;5.83;;
37047;SDS011;23227;48.780;9.210;2023-06-26T01:30:34;9.47;;;5.83;;
37047;SDS011;23227;48.780;9.210;2023-06-26T01:33:47;8.50;;;5.82;;
37047;SDS011;23227;48.780;9.210;2023-06-26T01:36:49;12.48;;;6.60;;
37047;SDS011;23227;48.780;9.210;2023-06-26T01:39:52;9.27;;;5.43;;
37047;SDS011;23227;48.780;9.210;2023-06-26T01:42:56;9.07;;;6.18;;
37047;SDS011;23227;48.780;9.210;2023-06-26T01:46:01;9.63;;;6.23;;
37047;SDS011;23227;48.780;9.210;2023-06-26T01:49:08;9.67;;;6.23;;
37047;SDS011;23227;48.780;9.210;2023-06-26T01:52:16;11.30;;;7.13;;
37047;SDS011;23227;48.780;9.210;2023-06-26T01:55:23;11.50;;;6.13;;
37047;SDS011;23227;48.780;9.210;2023-06-26T01:58:32;10.37;;;5.77;;
37047;SDS011;23227;48.780;9.210;2023-06-26T02:01:35;14.47;;;6.23;;
37047;SDS011;23227;48.780;9.210;2023-06-26T02:04:38;8.98;;;5.32;;
37047;SDS011;23227;48.780;9.210;2023-06-26T02:07:41;9.87;;;6.27;;
37047;SDS011;23227;48.780;9.210;2023-06-26T02:10:45;9.93;;;6.27;;
37047;SDS011;23227;48.780;9.210;2023-06-26T02:13:49;10.55;;;5.78;;
37047;SDS011;23227;48.780;9.210;2023-06-26T02:16:51;11.97;;;6.07;;
37047;SDS011;23227;48.780;9.210;2023-06-26T02:19:54;12.75;;;6.18;;
37047;SDS011;23227;48.780;9.210;2023-06-26T02:22:57;8.80;;;5.78;;
37047;SDS011;23227;48.780;9.210;2023-06-26T02:25:59;9.65;;;5.45;;
37047;SDS011;23227;48.780;9.210;2023-06-26T02:29:03;8.02;;;5.60;;
37047;SDS011;23227;48.780;9.210;2023-06-26T02:32:06;9.93;;;5.83;;
37047;SDS011;23227;48.780;9.210;2023-06-26T02:35:09;10.68;;;5.50;;
37047;SDS011;23227;48.780;9.210;2023-06-26T02:38:12;10.70;;;5.88;;
37047;SDS011;23227;48.780;9.210;2023-06-26T02:41:15;10.50;;;5.95;;
37047;SDS011;23227;48.780;9.210;2023-06-26T02:44:19;9.63;;;5.65;;
37047;SDS011;23227;48.780;9.210;2023-06-26T02:47:22;10.40;;;6.17;;
37047;SDS011;23227;48.780;9.210;2023-06-26T02:50:25;9.43;;;5.68;;
37047;SDS011;23227;48.780;9.210;2023-06-26T02:53:27;9.57;;;5.78;;
37047;SDS011;23227;48.780;9.210;2023-06-26T02:56:30;8.65;;;5.22;;
37047;SDS011;23227;48.780;9.210;2023-06-26T02:59:34;9.35;;;6.00;;
37047;SDS011;23227;48.780;9.210;2023-06-26T03:02:37;11.03;;;5.70;;
37047;SDS011;23227;48.780;9.210;2023-06-26T03:05:40;9.68;;;5.40;;
37047;SDS011;23227;48.780;9.210;2023-06-26T03:08:42;11.38;;;5.70;;
37047;SDS011;23227;48.780;9.210;2023-06-26T03:11:45;15.02;;;5.75;;
37047;SDS011;23227;48.780;9.210;2023-06-26T03:14:49;8.57;;;5.53;;
37047;SDS011;23227;48.780;9.210;2023-06-26T03:17:52;6.97;;;4.87;;
37047;SDS011;23227;48.780;9.210;2023-06-26T03:20:55;11.43;;;5.40;;
37047;SDS011;23227;48.780;9.210;2023-06-26T03:23:58;10.87;;;5.73;;
37047;SDS011;23227;48.780;9.210;2023-06-26T03:27:01;8.27;;;5.88;;
37047;SDS011;23227;48.780;9.210;2023-06-26T03:30:06;10.23;;;5.15;;
37047;SDS011;23227;48.780;9.210;2023-06-26T03:33:09;8.60;;;6.03;;
37047;SDS011;23227;48.780;9.210;2023-06-26T03:36:13;11.03;;;5.90;;
37047;SDS011;23227;48.780;9.210;2023-06-26T03:39:15;10.45;;;5.55;;
37047;SDS011;23227;48.780;9.210;2023-06-26T03:42:18;9.95;;;5.75;;
37047;SDS011;23227;48.780;9.210;2023-06-26T03:45:23;9.38;;;5.22;;
37047;SDS011;23227;48.780;9.210;2023-06-26T03:48:25;7.97;;;5.37;;
37047;SDS011;23227;48.780;9.210;2023-06-26T03:51:29;8.27;;;5.30;;
37047;SDS011;23227;48.780;9.210;2023-06-26T03:54:31;10.50;;;5.68;;
37047;SDS011;23227;48.780;9.210;2023-06-26T04:00:39;11.50;;;6.03;;
37047;SDS011;23227;48.780;9.210;2023-06-26T04:03:42;9.10;;;5.83;;
37047;SDS011;23227;48.780;9.210;2023-06-26T04:06:45;8.80;;;5.33;;
37047;SDS011;23227;48.780;9.210;2023-06-26T04:09:48;10.60;;;5.97;;
37047;SDS011;23227;48.780;9.210;2023-06-26T04:12:51;7.88;;;5.32;;
37047;SDS011;23227;48.780;9.210;2023-06-26T04:15:55;9.00;;;5.45;;
37047;SDS011;23227;48.780;9.210;2023-06-26T04:18:58;7.27;;;4.93;;
37047;SDS011;23227;48.780;9.210;2023-06-26T04:22:01;14.02;;;5.40;;
37047;SDS011;23227;48.780;9.210;2023-06-26T04:25:04;11.35;;;6.07;;
37047;SDS011;23227;48.780;9.210;2023-06-26T04:28:07;7.47;;;4.73;;
37047;SDS011;23227;48.780;9.210;2023-06-26T04:31:11;8.95;;;6.20;;
37047;SDS011;23227;48.780;9.210;2023-06-26T04:34:14;10.63;;;6.00;;
37047;SDS011;23227;48.780;9.210;2023-06-26T04:37:17;9.73;;;5.35;;
37047;SDS011;23227;48.780;9.210;2023-06-26T04:43:22;9.27;;;5.70;;
37047;SDS011;23227;48.780;9.210;2023-06-26T04:46:26;10.50;;;6.13;;
37047;SDS011;23227;48.780;9.210;2023-06-26T04:49:30;10.53;;;6.63;;
37047;SDS011;23227;48.780;9.210;2023-06-26T04:52:33;12.80;;;6.13;;
37047;SDS011;23227;48.780;9.210;2023-06-26T04:55:36;9.90;;;5.93;;
37047;SDS011;23227;48.780;9.210;2023-06-26T04:58:40;10.10;;;5.40;;
37047;SDS011;23227;48.780;9.210;2023-06-26T05:01:44;10.27;;;5.78;;
37047;SDS011;23227;48.780;9.210;2023-06-26T05:04:49;11.33;;;5.60;;
37047;SDS011;23227;48.780;9.210;2023-06-26T05:07:52;9.10;;;5.85;;
37047;SDS011;23227;48.780;9.210;2023-06-26T05:10:56;12.77;;;5.90;;
37047;SDS011;23227;48.780;9.210;2023-06-26T05:13:59;9.40;;;5.63;;
37047;SDS011;23227;48.780;9.210;2023-06-26T05:20:07;12.50;;;6.90;;
37047;SDS011;23227;48.780;9.210;2023-06-26T05:23:11;10.37;;;6.70;;
37047;SDS011;23227;48.780;9.210;2023-06-26T05:26:14;10.57;;;5.93;;
37047;SDS011;23227;48.780;9.210;2023-06-26T05:32:22;11.48;;;6.25;;
37047;SDS011;23227;48.780;9.210;2023-06-26T05:35:25;11.40;;;6.33;;
37047;SDS011;23227;48.780;9.210;2023-06-26T05:38:31;8.50;;;5.67;;
37047;SDS011;23227;48.780;9.210;2023-06-26T05:41:34;14.60;;;6.73;;
37047;SDS011;23227;48.780;9.210;2023-06-26T05:44:37;10.63;;;6.33;;
37047;SDS011;23227;48.780;9.210;2023-06-26T05:47:41;11.48;;;6.22;;
37047;SDS011;23227;48.780;9.210;2023-06-26T05:50:45;13.97;;;6.50;;
37047;SDS011;23227;48.780;9.210;2023-06-26T05:53:49;10.53;;;6.20;;
37047;SDS011;23227;48.780;9.210;2023-06-26T05:56:52;10.10;;;6.27;;
37047;SDS011;23227;48.780;9.210;2023-06-26T05:59:58;10.77;;;6.00;;
37047;SDS011;23227;48.780;9.210;2023-06-26T06:03:02;11.10;;;5.97;;
37047;SDS011;23227;48.780;9.210;2023-06-26T06:06:05;11.87;;;6.23;;
37047;SDS011;23227;48.780;9.210;2023-06-26T06:09:08;10.50;;;6.07;;
37047;SDS011;23227;48.780;9.210;2023-06-26T06:12:10;12.20;;;6.55;;
37047;SDS011;23227;48.780;9.210;2023-06-26T06:15:13;10.48;;;5.90;;
37047;SDS011;23227;48.780;9.210;2023-06-26T06:18:17;9.23;;;6.00;;
37047;SDS011;23227;48.780;9.210;2023-06-26T06:21:20;9.73;;;5.97;;
37047;SDS011;23227;48.780;9.210;2023-06-26T06:24:23;8.95;;;5.88;;
37047;SDS011;23227;48.780;9.210;2023-06-26T06:27:25;9.60;;;5.60;;
37047;SDS011;23227;48.780;9.210;2023-06-26T06:30:28;11.43;;;6.55;;
37047;SDS011;23227;48.780;9.210;2023-06-26T06:33:46;11.43;;;6.23;;
37047;SDS011;23227;48.780;9.210;2023-06-26T06:36:49;10.03;;;6.10;;
37047;SDS011;23227;48.780;9.210;2023-06-26T06:39:52;12.13;;;5.32;;
37047;SDS011;23227;48.780;9.210;2023-06-26T06:42:54;12.15;;;6.15;;
37047;SDS011;23227;48.780;9.210;2023-06-26T06:45:57;7.70;;;5.35;;
37047;SDS011;23227;48.780;9.210;2023-06-26T06:49:01;10.35;;;5.38;;
37047;SDS011;23227;48.780;9.210;2023-06-26T06:52:05;14.82;;;5.97;;
37047;SDS011;23227;48.780;9.210;2023-06-26T06:55:08;14.30;;;5.60;;
37047;SDS011;23227;48.780;9.210;2023-06-26T06:58:11;8.82;;;4.78;;
37047;SDS011;23227;48.780;9.210;2023-06-26T07:01:14;8.38;;;5.60;;
37047;SDS011;23227;48.780;9.210;2023-06-26T07:07:21;13.05;;;5.50;;
37047;SDS011;23227;48.780;9.210;2023-06-26T07:13:26;9.98;;;5.30;;
37047;SDS011;23227;48.780;9.210;2023-06-26T07:16:29;7.80;;;5.22;;
37047;SDS011;23227;48.780;9.210;2023-06-26T07:22:36;10.20;;;5.57;;
37047;SDS011;23227;48.780;9.210;2023-06-26T07:25:39;11.82;;;5.97;;
37047;SDS011;23227;48.780;9.210;2023-06-26T07:31:44;9.32;;;5.95;;
37047;SDS011;23227;48.780;9.210;2023-06-26T07:34:48;14.15;;;5.78;;
37047;SDS011;23227;48.780;9.210;2023-06-26T07:37:51;12.18;;;6.13;;
37047;SDS011;23227;48.780;9.210;2023-06-26T07:43:56;13.23;;;6.00;;
37047;SDS011;23227;48.780;9.210;2023-06-26T07:47:00;9.75;;;6.03;;
37047;SDS011;23227;48.780;9.210;2023-06-26T07:50:04;15.75;;;7.05;;
37047;SDS011;23227;48.780;9.210;2023-06-26T07:53:07;12.10;;;6.32;;
37047;SDS011;23227;48.780;9.210;2023-06-26T07:59:12;12.05;;;5.93;;
37047;SDS011;23227;48.780;9.210;2023-06-26T08:02:15;8.30;;;5.28;;
37047;SDS011;23227;48.780;9.210;2023-06-26T08:05:19;10.55;;;5.43;;
37047;SDS011;23227;48.780;9.210;2023-06-26T08:08:22;11.82;;;5.63;;
37047;SDS011;23227;48.780;9.210;2023-06-26T08:14:27;8.63;;;5.22;;
37047;SDS011;23227;48.780;9.210;2023-06-26T08:17:30;8.18;;;5.30;;
37047;SDS011;23227;48.780;9.210;2023-06-26T08:20:34;13.13;;;5.20;;
37047;SDS011;23227;48.780;9.210;2023-06-26T08:23:38;9.90;;;5.10;;
37047;SDS011;23227;48.780;9.210;2023-06-26T08:26:41;10.52;;;5.28;;
37047;SDS011;23227;48.780;9.210;2023-06-26T08:29:44;6.90;;;5.45;;
37047;SDS011;23227;48.780;9.210;2023-06-26T08:32:46;16.25;;;6.15;;
37047;SDS011;23227;48.780;9.210;2023-06-26T08:35:51;8.25;;;5.00;;
37047;SDS011;23227;48.780;9.210;2023-06-26T08:38:53;5.95;;;4.63;;
37047;SDS011;23227;48.780;9.210;2023-06-26T08:41:56;11.43;;;5.38;;
37047;SDS011;23227;48.780;9.210;2023-06-26T08:44:59;8.25;;;4.47;;
37047;SDS011;23227;48.780;9.210;2023-06-26T08:48:03;7.18;;;4.43;;
37047;SDS011;23227;48.780;9.210;2023-06-26T08:51:11;7.60;;;4.00;;
37047;SDS011;23227;48.780;9.210;2023-06-26T08:54:14;5.25;;;3.78;;
37047;SDS011;23227;48.780;9.210;2023-06-26T08:57:18;15.88;;;4.15;;
37047;SDS011;23227;48.780;9.210;2023-06-26T09:00:21;10.05;;;4.10;;
37047;SDS011;23227;48.780;9.210;2023-06-26T09:03:24;7.05;;;3.95;;
37047;SDS011;23227;48.780;9.210;2023-06-26T09:06:28;3.92;;;3.20;;
37047;SDS011;23227;48.780;9.210;2023-06-26T09:09:31;8.43;;;4.43;;
37047;SDS011;23227;48.780;9.210;2023-06-26T09:12:34;4.43;;;3.45;;
37047;SDS011;23227;48.780;9.210;2023-06-26T09:15:37;5.05;;;4.28;;
37047;SDS011;23227;48.780;9.210;2023-06-26T09:18:40;4.80;;;4.07;;
37047;SDS011;23227;48.780;9.210;2023-06-26T09:21:45;11.70;;;4.00;;
37047;SDS011;23227;48.780;9.210;2023-06-26T09:24:52;5.45;;;3.85;;
37047;SDS011;23227;48.780;9.210;2023-06-26T09:27:55;4.88;;;3.30;;
37047;SDS011;23227;48.780;9.210;2023-06-26T09:31:00;6.65;;;3.85;;
37047;SDS011;23227;48.780;9.210;2023-06-26T09:34:08;4.95;;;3.97;;
37047;SDS011;23227;48.780;9.210;2023-06-26T09:37:13;13.85;;;3.90;;
37047;SDS011;23227;48.780;9.210;2023-06-26T09:40:16;4.40;;;3.42;;
37047;SDS011;23227;48.780;9.210;2023-06-26T09:43:18;7.10;;;4.00;;
37047;SDS011;23227;48.780;9.210;2023-06-26T09:46:24;5.32;;;3.40;;
37047;SDS011;23227;48.780;9.210;2023-06-26T09:49:28;5.38;;;3.80;;
37047;SDS011;23227;48.780;9.210;2023-06-26T09:52:32;4.97;;;3.70;;
37047;SDS011;23227;48.780;9.210;2023-06-26T09:55:36;6.57;;;4.18;;
37047;SDS011;23227;48.780;9.210;2023-06-26T09:58:39;6.20;;;3.53;;
37047;SDS011;23227;48.780;9.210;2023-06-26T10:01:45;6.28;;;3.03;;
37047;SDS011;23227;48.780;9.210;2023-06-26T10:04:48;5.85;;;3.45;;
37047;SDS011;23227;48.780;9.210;2023-06-26T10:07:52;9.25;;;3.75;;
37047;SDS011;23227;48.780;9.210;2023-06-26T10:10:55;6.18;;;3.47;;
37047;SDS011;23227;48.780;9.210;2023-06-26T10:13:58;5.63;;;3.85;;
37047;SDS011;23227;48.780;9.210;2023-06-26T10:17:19;5.32;;;3.78;;
37047;SDS011;23227;48.780;9.210;2023-06-26T10:20:22;4.68;;;3.83;;
37047;SDS011;23227;48.780;9.210;2023-06-26T10:23:28;6.05;;;4.10;;
37047;SDS011;23227;48.780;9.210;2023-06-26T10:26:31;8.50;;;4.28;;
37047;SDS011;23227;48.780;9.210;2023-06-26T10:29:33;5.63;;;4.15;;
37047;SDS011;23227;48.780;9.210;2023-06-26T10:32:37;5.68;;;4.30;;
37047;SDS011;23227;48.780;9.210;2023-06-26T10:35:43;7.15;;;4.55;;
37047;SDS011;23227;48.780;9.210;2023-06-26T10:38:50;6.47;;;4.80;;
37047;SDS011;23227;48.780;9.210;2023-06-26T10:41:54;5.30;;;4.13;;
37047;SDS011;23227;48.780;9.210;2023-06-26T10:45:09;7.25;;;4.68;;
37047;SDS011;23227;48.780;9.210;2023-06-26T10:48:13;6.95;;;4.50;;
37047;SDS011;23227;48.780;9.210;2023-06-26T10:51:17;7.10;;;4.30;;
37047;SDS011;23227;48.780;9.210;2023-06-26T10:54:22;7.60;;;3.55;;
37047;SDS011;23227;48.780;9.210;2023-06-26T10:57:25;7.65;;;3.90;;
37047;SDS011;23227;48.780;9.210;2023-06-26T11:00:28;8.52;;;4.20;;
37047;SDS011;23227;48.780;9.210;2023-06-26T11:03:31;6.78;;;4.80;;
37047;SDS011;23227;48.780;9.210;2023-06-26T11:06:34;10.48;;;4.90;;
37047;SDS011;23227;48.780;9.210;2023-06-26T11:09:54;6.53;;;4.40;;
37047;SDS011;23227;48.780;9.210;2023-06-26T11:12:58;7.68;;;4.47;;
37047;SDS011;23227;48.780;9.210;2023-06-26T11:16:01;6.93;;;4.25;;
37047;SDS011;23227;48.780;9.210;2023-06-26T11:19:04;6.82;;;4.65;;
37047;SDS011;23227;48.780;9.210;2023-06-26T11:22:07;8.50;;;6.15;;
37047;SDS011;23227;48.780;9.210;2023-06-26T11:25:11;8.85;;;4.30;;
37047;SDS011;23227;48.780;9.210;2023-06-26T11:28:13;6.60;;;4.50;;
37047;SDS011;23227;48.780;9.210;2023-06-26T11:31:26;5.70;;;4.05;;
37047;SDS011;23227;48.780;9.210;2023-06-26T11:34:29;6.50;;;3.92;;
37047;SDS011;23227;48.780;9.210;2023-06-26T11:37:32;10.57;;;4.68;;
37047;SDS011;23227;48.780;9.210;2023-06-26T11:40:37;10.18;;;4.97;;
37047;SDS011;23227;48.780;9.210;2023-06-26T11:43:40;7.93;;;4.50;;
37047;SDS011;23227;48.780;9.210;2023-06-26T11:46:43;9.57;;;4.38;;
37047;SDS011;23227;48.780;9.210;2023-06-26T11:49:46;6.47;;;4.47;;
37047;SDS011;23227;48.780;9.210;2023-06-26T11:52:52;6.35;;;4.50;;
37047;SDS011;23227;48.780;9.210;2023-06-26T11:55:58;6.85;;;4.38;;
37047;SDS011;23227;48.780;9.210;2023-06-26T11:59:01;6.05;;;4.70;;
37047;SDS011;23227;48.780;9.210;2023-06-26T12:02:05;15.15;;;4.88;;
37047;SDS011;23227;48.780;9.210;2023-06-26T12:05:08;5.63;;;4.20;;
37047;SDS011;23227;48.780;9.210;2023-06-26T12:08:12;5.95;;;4.22;;
37047;SDS011;23227;48.780;9.210;2023-06-26T12:11:16;8.48;;;4.53;;
37047;SDS011;23227;48.780;9.210;2023-06-26T12:14:19;7.55;;;4.35;;
37047;SDS011;23227;48.780;9.210;2023-06-26T12:17:22;10.25;;;4.65;;
37047;SDS011;23227;48.780;9.210;2023-06-26T12:20:26;7.43;;;5.28;;
37047;SDS011;23227;48.780;9.210;2023-06-26T12:23:32;5.40;;;3.70;;
37047;SDS011;23227;48.780;9.210;2023-06-26T12:26:37;7.35;;;4.57;;
37047;SDS011;23227;48.780;9.210;2023-06-26T12:29:40;6.15;;;4.72;;
37047;SDS011;23227;48.780;9.210;2023-06-26T12:32:46;8.07;;;4.35;;
37047;SDS011;23227;48.780;9.210;2023-06-26T12:35:49;5.63;;;4.30;;
37047;SDS011;23227;48.780;9.210;2023-06-26T12:38:52;5.13;;;4.20;;
37047;SDS011;23227;48.780;9.210;2023-06-26T12:41:59;13.80;;;4.55;;
37047;SDS011;23227;48.780;9.210;2023-06-26T12:45:10;13.70;;;4.28;;
37047;SDS011;23227;48.780;9.210;2023-06-26T12:48:37;10.65;;;4.32;;
37047;SDS011;23227;48.780;9.210;2023-06-26T12:51:44;5.25;;;4.35;;
37047;SDS011;23227;48.780;9.210;2023-06-26T12:54:51;10.85;;;4.65;;
37047;SDS011;23227;48.780;9.210;2023-06-26T12:57:56;8.50;;;4.30;;
37047;SDS011;23227;48.780;9.210;2023-06-26T13:00:58;6.63;;;4.30;;
37047;SDS011;23227;48.780;9.210;2023-06-26T13:04:02;12.15;;;4.30;;
37047;SDS011;23227;48.780;9.210;2023-06-26T13:07:05;4.97;;;4.10;;
37047;SDS011;23227;48.780;9.210;2023-06-26T13:10:08;12.82;;;4.63;;
37047;SDS011;23227;48.780;9.210;2023-06-26T13:13:12;7.53;;;3.85;;
37047;SDS011;23227;48.780;9.210;2023-06-26T13:16:14;5.22;;;4.00;;
37047;SDS011;23227;48.780;9.210;2023-06-26T13:19:17;5.32;;;4.00;;
37047;SDS011;23227;48.780;9.210;2023-06-26T13:22:20;9.15;;;4.03;;
37047;SDS011;23227;48.780;9.210;2023-06-26T13:25:22;6.35;;;4.15;;
37047;SDS011;23227;48.780;9.210;2023-06-26T13:28:26;6.53;;;4.18;;
37047;SDS011;23227;48.780;9.210;2023-06-26T13:31:29;7.82;;;4.72;;
37047;SDS011;23227;48.780;9.210;2023-06-26T13:34:32;5.50;;;3.53;;
37047;SDS011;23227;48.780;9.210;2023-06-26T13:37:34;6.55;;;4.00;;
37047;SDS011;23227;48.780;9.210;2023-06-26T13:40:37;5.93;;;4.15;;
37047;SDS011;23227;48.780;9.210;2023-06-26T13:43:42;5.20;;;3.88;;
37047;SDS011;23227;48.780;9.210;2023-06-26T13:46:45;7.38;;;3.83;;
37047;SDS011;23227;48.780;9.210;2023-06-26T13:49:48;5.47;;;3.22;;
37047;SDS011;23227;48.780;9.210;2023-06-26T13:52:50;5.03;;;3.72;;
37047;SDS011;23227;48.780;9.210;2023-06-26T13:55:53;6.43;;;3.83;;
37047;SDS011;23227;48.780;9.210;2023-06-26T13:58:57;5.05;;;3.40;;
37047;SDS011;23227;48.780;9.210;2023-06-26T14:02:02;6.50;;;3.80;;
37047;SDS011;23227;48.780;9.210;2023-06-26T14:05:06;9.52;;;3.58;;
37047;SDS011;23227;48.780;9.210;2023-06-26T14:08:09;5.10;;;2.75;;
37047;SDS011;23227;48.780;9.210;2023-06-26T14:11:12;4.95;;;2.85;;
37047;SDS011;23227;48.780;9.210;2023-06-26T14:14:18;4.38;;;2.83;;
37047;SDS011;23227;48.780;9.210;2023-06-26T14:17:20;4.88;;;3.08;;
37047;SDS011;23227;48.780;9.210;2023-06-26T14:20:25;4.40;;;2.92;;
37047;SDS011;23227;48.780;9.210;2023-06-26T14:23:29;4.90;;;3.10;;
37047;SDS011;23227;48.780;9.210;2023-06-26T14:26:31;5.55;;;2.80;;
37047;SDS011;23227;48.780;9.210;2023-06-26T14:29:36;3.53;;;2.42;;
37047;SDS011;23227;48.780;9.210;2023-06-26T14:32:39;4.53;;;2.38;;
37047;SDS011;23227;48.780;9.210;2023-06-26T14:35:41;4.40;;;2.17;;
37047;SDS011;23227;48.780;9.210;2023-06-26T14:38:44;5.53;;;2.45;;
37047;SDS011;23227;48.780;9.210;2023-06-26T14:41:47;3.22;;;1.83;;
37047;SDS011;23227;48.780;9.210;2023-06-26T14:44:52;5.55;;;2.22;;
37047;SDS011;23227;48.780;9.210;2023-06-26T14:47:55;3.03;;;2.00;;
37047;SDS011;23227;48.780;9.210;2023-06-26T14:50:58;4.75;;;2.42;;
37047;SDS011;23227;48.780;9.210;2023-06-26T14:54:01;3.38;;;2.00;;
37047;SDS011;23227;48.780;9.210;2023-06-26T14:57:04;4.38;;;2.05;;
37047;SDS011;23227;48.780;9.210;2023-06-26T15:00:10;2.90;;;2.20;;
37047;SDS011;23227;48.780;9.210;2023-06-26T15:03:13;3.40;;;2.08;;
37047;SDS011;23227;48.780;9.210;2023-06-26T15:06:16;4.47;;;2.08;;
37047;SDS011;23227;48.780;9.210;2023-06-26T15:09:19;5.97;;;2.30;;
37047;SDS011;23227;48.780;9.210;2023-06-26T15:12:21;3.50;;;2.17;;
37047;SDS011;23227;48.780;9.210;2023-06-26T15:15:26;3.55;;;2.17;;
37047;SDS011;23227;48.780;9.210;2023-06-26T15:18:28;6.82;;;4.70;;
37047;SDS011;23227;48.780;9.210;2023-06-26T15:21:31;7.35;;;3.50;;
37047;SDS011;23227;48.780;9.210;2023-06-26T15:24:34;6.93;;;3.42;;
37047;SDS011;23227;48.780;9.210;2023-06-26T15:27:36;7.18;;;4.60;;
37047;SDS011;23227;48.780;9.210;2023-06-26T15:30:40;8.45;;;3.30;;
37047;SDS011;23227;48.780;9.210;2023-06-26T15:33:43;7.65;;;3.47;;
37047;SDS011;23227;48.780;9.210;2023-06-26T15:36:46;4.20;;;3.03;;
37047;SDS011;23227;48.780;9.210;2023-06-26T15:39:49;3.80;;;3.20;;
37047;SDS011;23227;48.780;9.210;2023-06-26T15:42:51;6.20;;;3.88;;
37047;SDS011;23227;48.780;9.210;2023-06-26T15:45:56;5.47;;;3.53;;
37047;SDS011;23227;48.780;9.210;2023-06-26T15:48:58;4.78;;;3.17;;
37047;SDS011;23227;48.780;9.210;2023-06-26T15:52:01;5.85;;;3.53;;
37047;SDS011;23227;48.780;9.210;2023-06-26T15:55:04;7.80;;;3.65;;
37047;SDS011;23227;48.780;9.210;2023-06-26T15:58:07;4.88;;;3.38;;
37047;SDS011;23227;48.780;9.210;2023-06-26T16:01:11;5.32;;;3.50;;
37047;SDS011;23227;48.780;9.210;2023-06-26T16:04:14;11.45;;;4.10;;
37047;SDS011;23227;48.780;9.210;2023-06-26T16:07:17;6.63;;;3.72;;
37047;SDS011;23227;48.780;9.210;2023-06-26T16:10:21;7.90;;;4.22;;
37047;SDS011;23227;48.780;9.210;2023-06-26T16:13:24;6.93;;;4.60;;
37047;SDS011;23227;48.780;9.210;2023-06-26T16:16:28;6.68;;;3.40;;
37047;SDS011;23227;48.780;9.210;2023-06-26T16:19:31;8.32;;;4.47;;
37047;SDS011;23227;48.780;9.210;2023-06-26T16:22:34;9.23;;;4.00;;
37047;SDS011;23227;48.780;9.210;2023-06-26T16:25:36;7.80;;;4.45;;
37047;SDS011;23227;48.780;9.210;2023-06-26T16:28:39;6.50;;;4.60;;
37047;SDS011;23227;48.780;9.210;2023-06-26T16:31:43;7.82;;;4.30;;
37047;SDS011;23227;48.780;9.210;2023-06-26T16:34:47;13.55;;;4.80;;
37047;SDS011;23227;48.780;9.210;2023-06-26T16:37:50;10.35;;;4.22;;
37047;SDS011;23227;48.780;9.210;2023-06-26T16:40:52;7.05;;;4.07;;
37047;SDS011;23227;48.780;9.210;2023-06-26T16:43:55;6.03;;;3.55;;
37047;SDS011;23227;48.780;9.210;2023-06-26T16:46:59;6.28;;;3.92;;
37047;SDS011;23227;48.780;9.210;2023-06-26T16:50:03;5.30;;;2.78;;
37047;SDS011;23227;48.780;9.210;2023-06-26T16:53:06;6.03;;;3.20;;
37047;SDS011;23227;48.780;9.210;2023-06-26T16:56:09;5.80;;;2.47;;
37047;SDS011;23227;48.780;9.210;2023-06-26T16:59:12;7.63;;;2.58;;
37047;SDS011;23227;48.780;9.210;2023-06-26T17:02:16;4.13;;;2.20;;
37047;SDS011;23227;48.780;9.210;2023-06-26T17:05:19;2.97;;;1.40;;
37047;SDS011;23227;48.780;9.210;2023-06-26T17:08:21;7.40;;;2.30;;
37047;SDS011;23227;48.780;9.210;2023-06-26T17:11:24;7.00;;;2.20;;
37047;SDS011;23227;48.780;9.210;2023-06-26T17:14:26;8.10;;;1.80;;
37047;SDS011;23227;48.780;9.210;2023-06-26T17:17:31;7.53;;;1.80;;
37047;SDS011;23227;48.780;9.210;2023-06-26T17:20:33;4.05;;;2.20;;
37047;SDS011;23227;48.780;9.210;2023-06-26T17:23:36;7.15;;;1.63;;
37047;SDS011;23227;48.780;9.210;2023-06-26T17:26:40;6.35;;;1.58;;
37047;SDS011;23227;48.780;9.210;2023-06-26T17:29:44;5.28;;;1.42;;
37047;SDS011;23227;48.780;9.210;2023-06-26T17:32:48;2.72;;;1.20;;
37047;SDS011;23227;48.780;9.210;2023-06-26T17:35:50;3.88;;;1.48;;
37047;SDS011;23227;48.780;9.210;2023-06-26T17:38:53;6.57;;;1.35;;
37047;SDS011;23227;48.780;9.210;2023-06-26T17:41:56;4.75;;;1.60;;
37047;SDS011;23227;48.780;9.210;2023-06-26T17:45:00;4.80;;;1.38;;
37047;SDS011;23227;48.780;9.210;2023-06-26T17:48:05;3.80;;;1.30;;
37047;SDS011;23227;48.780;9.210;2023-06-26T17:51:08;5.20;;;1.65;;
37047;SDS011;23227;48.780;9.210;2023-06-26T17:54:11;3.90;;;1.02;;
37047;SDS011;23227;48.780;9.210;2023-06-26T17:57:14;5.32;;;1.42;;
37047;SDS011;23227;48.780;9.210;2023-06-26T18:00:17;4.00;;;1.52;;
37047;SDS011;23227;48.780;9.210;2023-06-26T18:03:21;3.28;;;1.17;;
37047;SDS011;23227;48.780;9.210;2023-06-26T18:06:25;6.97;;;1.77;;
37047;SDS011;23227;48.780;9.210;2023-06-26T18:12:31;3.78;;;1.15;;
37047;SDS011;23227;48.780;9.210;2023-06-26T18:18:38;2.33;;;1.00;;
37047;SDS011;23227;48.780;9.210;2023-06-26T18:21:42;3.83;;;1.20;;
37047;SDS011;23227;48.780;9.210;2023-06-26T18:27:47;5.38;;;1.05;;
37047;SDS011;23227;48.780;9.210;2023-06-26T18:30:50;3.13;;;1.23;;
37047;SDS011;23227;48.780;9.210;2023-06-26T18:33:54;3.22;;;1.63;;
37047;SDS011;23227;48.780;9.210;2023-06-26T18:36:56;2.25;;;1.02;;
37047;SDS011;23227;48.780;9.210;2023-06-26T18:39:59;2.63;;;1.17;;
37047;SDS011;23227;48.780;9.210;2023-06-26T18:43:02;6.13;;;1.20;;
37047;SDS011;23227;48.780;9.210;2023-06-26T18:49:09;6.28;;;1.30;;
37047;SDS011;23227;48.780;9.210;2023-06-26T18:52:12;5.55;;;0.98;;
37047;SDS011;23227;48.780;9.210;2023-06-26T18:55:14;6.13;;;1.20;;
37047;SDS011;23227;48.780;9.210;2023-06-26T18:58:17;6.55;;;1.20;;
37047;SDS011;23227;48.780;9.210;2023-06-26T19:04:24;7.50;;;1.23;;
37047;SDS011;23227;48.780;9.210;2023-06-26T19:07:27;2.40;;;1.17;;
37047;SDS011;23227;48.780;9.210;2023-06-26T19:13:32;5.97;;;1.47;;
37047;SDS011;23227;48.780;9.210;2023-06-26T19:19:39;2.45;;;1.10;;
37047;SDS011;23227;48.780;9.210;2023-06-26T19:22:41;2.93;;;1.20;;